sensor_id;sensor_type;location;lat;lon;timestamp;pressure;altitude;pressure_sealevel;temperature;humidity
83718;BME280;73701;52.234;21.288;2024-03-08T00:01:40;101430.84;;;-2.56;80.03
83718;BME280;73701;52.234;21.288;2024-03-08T00:04:05;101447.28;;;-2.46;79.84
83718;BME280;73701;52.234;21.288;2024-03-08T00:06:31;101432.44;;;-2.58;80.33
83718;BME280;73701;52.234;21.288;2024-03-08T00:08:57;101415.22;;;-2.67;79.88
83718;BME280;73701;52.234;21.288;2024-03-08T00:11:22;101433.63;;;-2.48;79.85
83718;BME280;73701;52.234;21.288;2024-03-08T00:13:51;101391.97;;;-2.78;79.86
83718;BME280;73701;52.234;21.288;2024-03-08T00:16:17;101437.44;;;-2.61;80.19
83718;BME280;73701;52.234;21.288;2024-03-08T00:18:44;101396.69;;;-2.88;79.88
83718;BME280;73701;52.234;21.288;2024-03-08T00:21:09;101421.75;;;-2.75;80.15
83718;BME280;73701;52.234;21.288;2024-03-08T00:23:35;101384.53;;;-2.97;80.30
83718;BME280;73701;52.234;21.288;2024-03-08T00:26:01;101397.34;;;-2.94;79.75
83718;BME280;73701;52.234;21.288;2024-03-08T00:28:28;101350.69;;;-3.22;80.12
83718;BME280;73701;52.234;21.288;2024-03-08T00:30:54;101420.16;;;-2.71;80.93
83718;BME280;73701;52.234;21.288;2024-03-08T00:33:19;101384.63;;;-2.94;81.10
83718;BME280;73701;52.234;21.288;2024-03-08T00:35:44;101420.75;;;-2.79;80.73
83718;BME280;73701;52.234;21.288;2024-03-08T00:38:09;101402.44;;;-2.94;80.36
83718;BME280;73701;52.234;21.288;2024-03-08T00:40:35;101403.31;;;-2.93;80.65
83718;BME280;73701;52.234;21.288;2024-03-08T00:43:00;101430.41;;;-2.94;82.00
83718;BME280;73701;52.234;21.288;2024-03-08T00:45:25;101410.00;;;-2.96;81.75
83718;BME280;73701;52.234;21.288;2024-03-08T00:47:51;101392.56;;;-3.10;80.86
83718;BME280;73701;52.234;21.288;2024-03-08T00:50:16;101425.63;;;-2.85;80.79
83718;BME280;73701;52.234;21.288;2024-03-08T00:52:43;101387.94;;;-3.21;81.25
83718;BME280;73701;52.234;21.288;2024-03-08T00:55:08;101418.66;;;-2.90;80.61
83718;BME280;73701;52.234;21.288;2024-03-08T00:57:35;101396.22;;;-3.02;80.88
83718;BME280;73701;52.234;21.288;2024-03-08T01:00:03;101392.00;;;-3.02;81.88
83718;BME280;73701;52.234;21.288;2024-03-08T01:02:28;101423.31;;;-3.03;81.89
83718;BME280;73701;52.234;21.288;2024-03-08T01:04:54;101417.06;;;-2.87;81.26
83718;BME280;73701;52.234;21.288;2024-03-08T01:07:19;101419.13;;;-2.77;80.86
83718;BME280;73701;52.234;21.288;2024-03-08T01:09:45;101213.34;;;-4.01;80.81
83718;BME280;73701;52.234;21.288;2024-03-08T01:12:10;101439.34;;;-2.80;80.30
83718;BME280;73701;52.234;21.288;2024-03-08T01:14:36;101394.84;;;-2.92;80.71
83718;BME280;73701;52.234;21.288;2024-03-08T01:17:01;101417.19;;;-2.84;81.00
83718;BME280;73701;52.234;21.288;2024-03-08T01:19:26;101360.66;;;-3.26;80.74
83718;BME280;73701;52.234;21.288;2024-03-08T01:21:52;101392.44;;;-3.14;80.89
83718;BME280;73701;52.234;21.288;2024-03-08T01:24:17;101412.06;;;-3.09;80.13
83718;BME280;73701;52.234;21.288;2024-03-08T01:26:42;101365.38;;;-3.37;80.49
83718;BME280;73701;52.234;21.288;2024-03-08T01:29:08;101383.53;;;-3.26;80.87
83718;BME280;73701;52.234;21.288;2024-03-08T01:31:33;101349.84;;;-3.45;80.47
83718;BME280;73701;52.234;21.288;2024-03-08T01:33:59;101399.75;;;-3.23;80.70
83718;BME280;73701;52.234;21.288;2024-03-08T01:36:24;101389.34;;;-3.31;80.67
83718;BME280;73701;52.234;21.288;2024-03-08T01:38:50;101420.19;;;-3.20;80.72
83718;BME280;73701;52.234;21.288;2024-03-08T01:41:16;101383.38;;;-3.31;80.75
83718;BME280;73701;52.234;21.288;2024-03-08T01:43:43;101402.41;;;-3.20;81.13
83718;BME280;73701;52.234;21.288;2024-03-08T01:46:09;101380.47;;;-3.42;81.03
83718;BME280;73701;52.234;21.288;2024-03-08T01:48:36;101379.91;;;-3.33;80.58
83718;BME280;73701;52.234;21.288;2024-03-08T01:51:02;101335.84;;;-3.58;81.23
83718;BME280;73701;52.234;21.288;2024-03-08T01:53:28;101401.44;;;-3.23;81.03
83718;BME280;73701;52.234;21.288;2024-03-08T01:55:58;101379.16;;;-3.31;80.04
83718;BME280;73701;52.234;21.288;2024-03-08T01:58:26;101384.47;;;-3.24;79.24
83718;BME280;73701;52.234;21.288;2024-03-08T02:00:53;101396.50;;;-3.19;79.76
83718;BME280;73701;52.234;21.288;2024-03-08T02:03:19;101278.94;;;-3.89;80.21
83718;BME280;73701;52.234;21.288;2024-03-08T02:05:46;101350.22;;;-3.58;80.34
83718;BME280;73701;52.234;21.288;2024-03-08T02:08:11;101354.41;;;-3.60;80.73
83718;BME280;73701;52.234;21.288;2024-03-08T02:10:46;101391.63;;;-3.37;79.79
83718;BME280;73701;52.234;21.288;2024-03-08T02:13:11;101353.88;;;-3.52;80.04
83718;BME280;73701;52.234;21.288;2024-03-08T02:16:03;101381.25;;;-3.43;80.01
83718;BME280;73701;52.234;21.288;2024-03-08T02:18:30;101363.78;;;-3.58;81.34
83718;BME280;73701;52.234;21.288;2024-03-08T02:20:56;101368.50;;;-3.44;81.53
83718;BME280;73701;52.234;21.288;2024-03-08T02:23:22;101368.78;;;-3.37;80.71
83718;BME280;73701;52.234;21.288;2024-03-08T02:25:48;101379.28;;;-3.27;80.68
83718;BME280;73701;52.234;21.288;2024-03-08T02:28:14;101378.38;;;-3.28;79.97
83718;BME280;73701;52.234;21.288;2024-03-08T02:30:40;101329.91;;;-3.58;80.11
83718;BME280;73701;52.234;21.288;2024-03-08T02:33:06;101365.91;;;-3.46;80.37
83718;BME280;73701;52.234;21.288;2024-03-08T02:35:34;101137.47;;;-4.90;78.93
83718;BME280;73701;52.234;21.288;2024-03-08T02:38:00;101374.13;;;-3.53;79.27
83718;BME280;73701;52.234;21.288;2024-03-08T02:40:26;101345.94;;;-3.84;79.77
83718;BME280;73701;52.234;21.288;2024-03-08T02:42:51;101335.78;;;-3.84;79.31
83718;BME280;73701;52.234;21.288;2024-03-08T02:45:16;101386.31;;;-3.67;79.48
83718;BME280;73701;52.234;21.288;2024-03-08T02:47:42;101380.50;;;-3.65;79.48
83718;BME280;73701;52.234;21.288;2024-03-08T02:50:07;101357.06;;;-3.80;79.23
83718;BME280;73701;52.234;21.288;2024-03-08T02:52:37;101381.44;;;-3.61;79.89
83718;BME280;73701;52.234;21.288;2024-03-08T02:55:02;101370.16;;;-3.69;79.87
83718;BME280;73701;52.234;21.288;2024-03-08T02:57:28;101326.97;;;-3.93;79.64
83718;BME280;73701;52.234;21.288;2024-03-08T02:59:53;101374.78;;;-3.82;80.08
83718;BME280;73701;52.234;21.288;2024-03-08T03:02:18;101370.50;;;-3.83;80.29
83718;BME280;73701;52.234;21.288;2024-03-08T03:04:44;101311.88;;;-4.13;80.14
83718;BME280;73701;52.234;21.288;2024-03-08T03:07:09;101308.41;;;-4.15;79.40
83718;BME280;73701;52.234;21.288;2024-03-08T03:09:34;101340.41;;;-3.96;79.31
83718;BME280;73701;52.234;21.288;2024-03-08T03:12:00;101370.03;;;-3.72;79.35
83718;BME280;73701;52.234;21.288;2024-03-08T03:14:25;101274.28;;;-4.46;79.74
83718;BME280;73701;52.234;21.288;2024-03-08T03:16:53;101334.31;;;-4.01;80.17
83718;BME280;73701;52.234;21.288;2024-03-08T03:19:19;101362.78;;;-3.86;80.46
83718;BME280;73701;52.234;21.288;2024-03-08T03:21:45;101348.25;;;-3.90;80.33
83718;BME280;73701;52.234;21.288;2024-03-08T03:24:10;101344.44;;;-4.01;80.08
83718;BME280;73701;52.234;21.288;2024-03-08T03:26:38;101345.13;;;-4.05;80.64
83718;BME280;73701;52.234;21.288;2024-03-08T03:29:07;101328.69;;;-4.15;80.35
83718;BME280;73701;52.234;21.288;2024-03-08T03:31:34;101363.13;;;-3.99;79.91
83718;BME280;73701;52.234;21.288;2024-03-08T03:34:00;101345.13;;;-4.05;79.58
83718;BME280;73701;52.234;21.288;2024-03-08T03:36:28;101335.84;;;-4.05;80.26
83718;BME280;73701;52.234;21.288;2024-03-08T03:38:54;101321.03;;;-4.17;80.19
83718;BME280;73701;52.234;21.288;2024-03-08T03:41:30;101344.22;;;-4.07;79.80
83718;BME280;73701;52.234;21.288;2024-03-08T03:43:56;101323.88;;;-4.09;79.37
83718;BME280;73701;52.234;21.288;2024-03-08T03:46:21;101362.56;;;-3.92;79.87
83718;BME280;73701;52.234;21.288;2024-03-08T03:48:46;101337.69;;;-4.01;80.04
83718;BME280;73701;52.234;21.288;2024-03-08T03:51:12;101329.84;;;-4.07;80.39
83718;BME280;73701;52.234;21.288;2024-03-08T03:53:37;101337.69;;;-4.01;80.38
83718;BME280;73701;52.234;21.288;2024-03-08T03:56:03;101270.34;;;-4.38;79.54
83718;BME280;73701;52.234;21.288;2024-03-08T03:58:32;101341.84;;;-4.03;79.88
83718;BME280;73701;52.234;21.288;2024-03-08T04:00:57;101292.09;;;-4.22;78.97
83718;BME280;73701;52.234;21.288;2024-03-08T04:03:22;101212.44;;;-4.72;79.00
83718;BME280;73701;52.234;21.288;2024-03-08T04:05:48;101292.81;;;-4.26;78.93
83718;BME280;73701;52.234;21.288;2024-03-08T04:08:13;101337.94;;;-3.94;80.22
83718;BME280;73701;52.234;21.288;2024-03-08T04:10:39;101298.44;;;-4.10;80.17
83718;BME280;73701;52.234;21.288;2024-03-08T04:13:04;101337.06;;;-3.95;80.06
83718;BME280;73701;52.234;21.288;2024-03-08T04:15:29;101303.75;;;-4.04;79.47
83718;BME280;73701;52.234;21.288;2024-03-08T04:17:55;101338.03;;;-3.91;78.93
83718;BME280;73701;52.234;21.288;2024-03-08T04:20:22;101186.75;;;-4.81;78.73
83718;BME280;73701;52.234;21.288;2024-03-08T04:22:47;101323.94;;;-4.07;80.01
83718;BME280;73701;52.234;21.288;2024-03-08T04:25:14;101339.84;;;-3.89;79.47
83718;BME280;73701;52.234;21.288;2024-03-08T04:27:39;101324.03;;;-4.04;78.63
83718;BME280;73701;52.234;21.288;2024-03-08T04:30:06;101333.50;;;-4.00;78.15
83718;BME280;73701;52.234;21.288;2024-03-08T04:32:34;101323.00;;;-4.09;79.44
83718;BME280;73701;52.234;21.288;2024-03-08T04:35:00;101336.41;;;-4.12;78.64
83718;BME280;73701;52.234;21.288;2024-03-08T04:37:29;101346.28;;;-4.20;79.36
83718;BME280;73701;52.234;21.288;2024-03-08T04:39:57;101342.94;;;-4.19;79.42
83718;BME280;73701;52.234;21.288;2024-03-08T04:42:23;101340.47;;;-4.17;79.42
83718;BME280;73701;52.234;21.288;2024-03-08T04:44:49;101328.66;;;-4.17;78.54
83718;BME280;73701;52.234;21.288;2024-03-08T04:47:14;101146.97;;;-5.28;79.44
83718;BME280;73701;52.234;21.288;2024-03-08T04:49:39;101315.69;;;-4.24;78.87
83718;BME280;73701;52.234;21.288;2024-03-08T04:52:05;101339.94;;;-4.08;79.06
83718;BME280;73701;52.234;21.288;2024-03-08T04:54:31;101330.31;;;-4.17;78.76
83718;BME280;73701;52.234;21.288;2024-03-08T04:56:57;101339.69;;;-4.16;78.76
83718;BME280;73701;52.234;21.288;2024-03-08T04:59:22;101320.91;;;-4.42;79.58
83718;BME280;73701;52.234;21.288;2024-03-08T05:01:48;101295.25;;;-4.50;79.79
83718;BME280;73701;52.234;21.288;2024-03-08T05:04:13;101189.91;;;-5.10;79.85
83718;BME280;73701;52.234;21.288;2024-03-08T05:06:39;101301.78;;;-4.34;80.77
83718;BME280;73701;52.234;21.288;2024-03-08T05:09:04;101323.63;;;-4.15;80.68
83718;BME280;73701;52.234;21.288;2024-03-08T05:11:45;101312.09;;;-4.29;79.46
83718;BME280;73701;52.234;21.288;2024-03-08T05:14:11;101329.31;;;-4.21;79.08
83718;BME280;73701;52.234;21.288;2024-03-08T05:16:42;101309.44;;;-4.32;79.76
83718;BME280;73701;52.234;21.288;2024-03-08T05:19:07;101321.38;;;-4.30;79.49
83718;BME280;73701;52.234;21.288;2024-03-08T05:21:32;101346.41;;;-4.17;79.40
83718;BME280;73701;52.234;21.288;2024-03-08T05:23:58;101330.16;;;-4.22;79.55
83718;BME280;73701;52.234;21.288;2024-03-08T05:26:23;101352.53;;;-4.11;79.20
83718;BME280;73701;52.234;21.288;2024-03-08T05:28:48;101308.75;;;-4.28;79.45
83718;BME280;73701;52.234;21.288;2024-03-08T05:31:23;101302.84;;;-4.29;79.14
83718;BME280;73701;52.234;21.288;2024-03-08T05:33:49;101338.38;;;-4.05;79.74
83718;BME280;73701;52.234;21.288;2024-03-08T05:36:14;101302.25;;;-4.22;78.79
83718;BME280;73701;52.234;21.288;2024-03-08T05:38:41;101321.09;;;-4.15;79.32
83718;BME280;73701;52.234;21.288;2024-03-08T05:41:08;101336.72;;;-4.04;79.72
83718;BME280;73701;52.234;21.288;2024-03-08T05:43:34;101292.69;;;-4.29;79.19
83718;BME280;73701;52.234;21.288;2024-03-08T05:45:59;101341.81;;;-4.04;79.66
83718;BME280;73701;52.234;21.288;2024-03-08T05:48:24;101327.16;;;-4.11;79.41
83718;BME280;73701;52.234;21.288;2024-03-08T05:50:50;101303.06;;;-4.23;79.68
83718;BME280;73701;52.234;21.288;2024-03-08T05:53:15;101303.38;;;-4.13;79.14
83718;BME280;73701;52.234;21.288;2024-03-08T05:55:41;101281.59;;;-4.31;79.79
83718;BME280;73701;52.234;21.288;2024-03-08T05:58:06;101286.16;;;-4.22;79.84
83718;BME280;73701;52.234;21.288;2024-03-08T06:00:33;101299.09;;;-4.16;79.13
83718;BME280;73701;52.234;21.288;2024-03-08T06:02:59;101317.53;;;-3.97;80.31
83718;BME280;73701;52.234;21.288;2024-03-08T06:05:25;101327.91;;;-3.91;79.92
83718;BME280;73701;52.234;21.288;2024-03-08T06:07:50;101313.13;;;-3.79;80.30
83718;BME280;73701;52.234;21.288;2024-03-08T06:10:18;101339.09;;;-3.62;80.20
83718;BME280;73701;52.234;21.288;2024-03-08T06:12:44;101263.41;;;-3.96;80.37
83718;BME280;73701;52.234;21.288;2024-03-08T06:15:10;101336.94;;;-3.51;80.86
83718;BME280;73701;52.234;21.288;2024-03-08T06:17:39;101325.75;;;-3.56;80.21
83718;BME280;73701;52.234;21.288;2024-03-08T06:20:05;101342.41;;;-3.40;80.96
83718;BME280;73701;52.234;21.288;2024-03-08T06:22:36;101334.84;;;-3.39;82.16
83718;BME280;73701;52.234;21.288;2024-03-08T06:25:01;101327.28;;;-3.37;81.75
83718;BME280;73701;52.234;21.288;2024-03-08T06:27:27;101313.78;;;-3.36;81.37
83718;BME280;73701;52.234;21.288;2024-03-08T06:29:52;101336.75;;;-3.07;82.37
83718;BME280;73701;52.234;21.288;2024-03-08T06:32:17;101338.88;;;-2.94;83.81
83718;BME280;73701;52.234;21.288;2024-03-08T06:34:44;101323.53;;;-2.97;83.74
83718;BME280;73701;52.234;21.288;2024-03-08T06:37:09;101352.25;;;-2.74;84.10
83718;BME280;73701;52.234;21.288;2024-03-08T06:39:34;101305.19;;;-2.88;84.41
83718;BME280;73701;52.234;21.288;2024-03-08T06:42:00;101318.44;;;-2.71;84.71
83718;BME280;73701;52.234;21.288;2024-03-08T06:44:26;101330.97;;;-2.50;84.36
83718;BME280;73701;52.234;21.288;2024-03-08T06:46:52;101318.25;;;-2.50;83.67
83718;BME280;73701;52.234;21.288;2024-03-08T06:49:17;101328.84;;;-2.36;83.36
83718;BME280;73701;52.234;21.288;2024-03-08T06:51:42;101346.13;;;-2.26;83.04
83718;BME280;73701;52.234;21.288;2024-03-08T06:54:08;101336.16;;;-2.18;82.71
83718;BME280;73701;52.234;21.288;2024-03-08T06:56:37;101303.72;;;-2.26;82.80
83718;BME280;73701;52.234;21.288;2024-03-08T06:59:03;101340.19;;;-1.98;83.62
83718;BME280;73701;52.234;21.288;2024-03-08T07:01:29;101314.56;;;-2.02;82.61
83718;BME280;73701;52.234;21.288;2024-03-08T07:03:57;101325.13;;;-1.90;83.46
83718;BME280;73701;52.234;21.288;2024-03-08T07:06:22;101313.19;;;-1.91;84.04
83718;BME280;73701;52.234;21.288;2024-03-08T07:08:48;101285.84;;;-1.98;83.72
83718;BME280;73701;52.234;21.288;2024-03-08T07:11:14;101212.53;;;-2.40;84.94
83718;BME280;73701;52.234;21.288;2024-03-08T07:13:43;101270.22;;;-1.80;85.00
83718;BME280;73701;52.234;21.288;2024-03-08T07:16:08;101194.41;;;-2.21;85.48
83718;BME280;73701;52.234;21.288;2024-03-08T07:18:33;101316.22;;;-1.44;85.45
83718;BME280;73701;52.234;21.288;2024-03-08T07:21:00;101325.34;;;-1.18;86.13
83718;BME280;73701;52.234;21.288;2024-03-08T07:23:27;101257.56;;;-1.45;85.21
83718;BME280;73701;52.234;21.288;2024-03-08T07:26:11;101312.63;;;-1.17;85.34
83718;BME280;73701;52.234;21.288;2024-03-08T07:28:36;101284.78;;;-1.11;84.73
83718;BME280;73701;52.234;21.288;2024-03-08T07:31:02;101169.38;;;-1.74;85.30
83718;BME280;73701;52.234;21.288;2024-03-08T07:33:42;101347.03;;;-0.67;84.20
83718;BME280;73701;52.234;21.288;2024-03-08T07:36:08;101319.03;;;-0.64;84.89
83718;BME280;73701;52.234;21.288;2024-03-08T07:38:33;101106.47;;;-1.78;84.32
83718;BME280;73701;52.234;21.288;2024-03-08T07:40:59;101329.19;;;-0.29;84.07
83718;BME280;73701;52.234;21.288;2024-03-08T07:43:25;101325.16;;;-0.20;83.51
83718;BME280;73701;52.234;21.288;2024-03-08T07:45:50;101284.06;;;-0.30;83.47
83718;BME280;73701;52.234;21.288;2024-03-08T07:48:18;101289.13;;;-0.32;83.76
83718;BME280;73701;52.234;21.288;2024-03-08T07:50:43;101301.41;;;-0.15;83.84
83718;BME280;73701;52.234;21.288;2024-03-08T07:53:08;101286.13;;;-0.14;83.07
83718;BME280;73701;52.234;21.288;2024-03-08T07:55:34;101293.19;;;-0.01;81.28
83718;BME280;73701;52.234;21.288;2024-03-08T07:58:01;101303.84;;;0.21;82.38
83718;BME280;73701;52.234;21.288;2024-03-08T08:00:26;101272.06;;;0.07;82.55
83718;BME280;73701;52.234;21.288;2024-03-08T08:02:53;101308.81;;;0.58;82.43
83718;BME280;73701;52.234;21.288;2024-03-08T08:05:18;101282.22;;;0.48;82.37
83718;BME280;73701;52.234;21.288;2024-03-08T08:07:44;101314.94;;;0.66;80.84
83718;BME280;73701;52.234;21.288;2024-03-08T08:10:12;101200.47;;;0.02;78.49
83718;BME280;73701;52.234;21.288;2024-03-08T08:12:43;101304.16;;;0.84;77.54
83718;BME280;73701;52.234;21.288;2024-03-08T08:15:09;101275.81;;;0.70;78.56
83718;BME280;73701;52.234;21.288;2024-03-08T08:17:34;101313.13;;;1.11;76.56
83718;BME280;73701;52.234;21.288;2024-03-08T08:20:00;101199.72;;;0.57;76.42
83718;BME280;73701;52.234;21.288;2024-03-08T08:22:25;101277.47;;;1.18;76.09
83718;BME280;73701;52.234;21.288;2024-03-08T08:24:50;101283.75;;;1.41;75.24
83718;BME280;73701;52.234;21.288;2024-03-08T08:27:17;101300.28;;;1.63;73.83
83718;BME280;73701;52.234;21.288;2024-03-08T08:29:42;101300.47;;;1.77;71.29
83718;BME280;73701;52.234;21.288;2024-03-08T08:32:08;101268.81;;;1.70;71.99
83718;BME280;73701;52.234;21.288;2024-03-08T08:34:33;101304.22;;;2.02;70.11
83718;BME280;73701;52.234;21.288;2024-03-08T08:36:59;101274.25;;;1.98;68.74
83718;BME280;73701;52.234;21.288;2024-03-08T08:39:24;101280.56;;;2.24;69.36
83718;BME280;73701;52.234;21.288;2024-03-08T08:41:51;101273.72;;;2.25;68.41
83718;BME280;73701;52.234;21.288;2024-03-08T08:44:16;101271.25;;;2.33;67.33
83718;BME280;73701;52.234;21.288;2024-03-08T08:46:41;101284.22;;;2.47;67.88
83718;BME280;73701;52.234;21.288;2024-03-08T08:49:08;101207.78;;;2.12;66.84
83718;BME280;73701;52.234;21.288;2024-03-08T08:51:36;101281.78;;;2.62;68.34
83718;BME280;73701;52.234;21.288;2024-03-08T08:54:01;101224.31;;;2.38;68.11
83718;BME280;73701;52.234;21.288;2024-03-08T08:56:27;101147.06;;;2.03;65.33
83718;BME280;73701;52.234;21.288;2024-03-08T08:58:53;101280.41;;;2.95;63.85
83718;BME280;73701;52.234;21.288;2024-03-08T09:01:19;101274.53;;;3.10;62.20
83718;BME280;73701;52.234;21.288;2024-03-08T09:03:45;101257.38;;;3.07;63.16
83718;BME280;73701;52.234;21.288;2024-03-08T09:06:12;101248.84;;;3.11;63.12
83718;BME280;73701;52.234;21.288;2024-03-08T09:08:41;101242.06;;;3.20;62.43
83718;BME280;73701;52.234;21.288;2024-03-08T09:11:06;101269.63;;;3.45;61.22
83718;BME280;73701;52.234;21.288;2024-03-08T09:13:32;101267.09;;;3.50;60.46
83718;BME280;73701;52.234;21.288;2024-03-08T09:15:59;101267.19;;;3.66;59.64
83718;BME280;73701;52.234;21.288;2024-03-08T09:18:24;101237.16;;;3.52;60.05
83718;BME280;73701;52.234;21.288;2024-03-08T09:20:50;101223.47;;;3.59;58.94
83718;BME280;73701;52.234;21.288;2024-03-08T09:23:16;101246.72;;;3.87;58.85
83718;BME280;73701;52.234;21.288;2024-03-08T09:25:44;101205.53;;;3.70;58.32
83718;BME280;73701;52.234;21.288;2024-03-08T09:28:10;101247.63;;;4.02;58.70
83718;BME280;73701;52.234;21.288;2024-03-08T09:30:37;101217.59;;;3.82;59.38
83718;BME280;73701;52.234;21.288;2024-03-08T09:33:03;101246.81;;;4.15;58.71
83718;BME280;73701;52.234;21.288;2024-03-08T09:35:29;101238.28;;;4.18;58.82
83718;BME280;73701;52.234;21.288;2024-03-08T09:37:55;101223.69;;;4.17;59.11
83718;BME280;73701;52.234;21.288;2024-03-08T09:40:21;101221.13;;;4.21;57.85
83718;BME280;73701;52.234;21.288;2024-03-08T09:42:48;101249.44;;;4.47;57.35
83718;BME280;73701;52.234;21.288;2024-03-08T09:45:14;101229.72;;;4.40;57.26
83718;BME280;73701;52.234;21.288;2024-03-08T09:47:43;101181.69;;;4.22;58.64
83718;BME280;73701;52.234;21.288;2024-03-08T09:50:09;101129.38;;;3.91;58.90
83718;BME280;73701;52.234;21.288;2024-03-08T09:52:42;101211.72;;;4.51;56.61
83718;BME280;73701;52.234;21.288;2024-03-08T09:55:10;101025.63;;;3.50;56.98
83718;BME280;73701;52.234;21.288;2024-03-08T09:57:37;101156.81;;;4.47;55.99
83718;BME280;73701;52.234;21.288;2024-03-08T10:00:04;101213.47;;;4.88;56.50
83718;BME280;73701;52.234;21.288;2024-03-08T10:02:45;101214.31;;;4.88;57.01
83718;BME280;73701;52.234;21.288;2024-03-08T10:05:12;101214.28;;;5.11;55.35
83718;BME280;73701;52.234;21.288;2024-03-08T10:07:37;101223.72;;;5.25;55.63
83718;BME280;73701;52.234;21.288;2024-03-08T10:10:03;101210.81;;;5.20;56.48
83718;BME280;73701;52.234;21.288;2024-03-08T10:12:28;101196.25;;;5.21;54.37
83718;BME280;73701;52.234;21.288;2024-03-08T10:14:58;101042.81;;;4.36;53.73
83718;BME280;73701;52.234;21.288;2024-03-08T10:17:23;101205.63;;;5.48;51.47
83718;BME280;73701;52.234;21.288;2024-03-08T10:19:50;101216.72;;;5.64;52.65
83718;BME280;73701;52.234;21.288;2024-03-08T10:22:16;101216.72;;;5.65;52.94
83718;BME280;73701;52.234;21.288;2024-03-08T10:24:41;101205.50;;;5.73;52.52
83718;BME280;73701;52.234;21.288;2024-03-08T10:27:07;101190.03;;;5.73;48.86
83718;BME280;73701;52.234;21.288;2024-03-08T10:29:32;101206.31;;;5.93;48.87
83718;BME280;73701;52.234;21.288;2024-03-08T10:31:58;101094.94;;;5.25;51.18
83718;BME280;73701;52.234;21.288;2024-03-08T10:34:23;101194.25;;;6.01;49.93
83718;BME280;73701;52.234;21.288;2024-03-08T10:36:50;101202.72;;;6.24;50.18
83718;BME280;73701;52.234;21.288;2024-03-08T10:39:21;101203.50;;;6.33;49.12
83718;BME280;73701;52.234;21.288;2024-03-08T10:41:53;101043.25;;;5.51;49.71
83718;BME280;73701;52.234;21.288;2024-03-08T10:44:48;101202.41;;;6.64;48.20
83718;BME280;73701;52.234;21.288;2024-03-08T10:47:19;101205.72;;;6.84;47.74
83718;BME280;73701;52.234;21.288;2024-03-08T10:49:53;101178.06;;;6.91;46.87
83718;BME280;73701;52.234;21.288;2024-03-08T10:52:20;100917.00;;;5.49;46.38
83718;BME280;73701;52.234;21.288;2024-03-08T10:54:47;101174.44;;;7.12;48.23
83718;BME280;73701;52.234;21.288;2024-03-08T10:57:13;101152.09;;;7.06;47.82
83718;BME280;73701;52.234;21.288;2024-03-08T10:59:40;101177.66;;;7.33;46.01
83718;BME280;73701;52.234;21.288;2024-03-08T11:02:10;100903.03;;;5.75;45.36
83718;BME280;73701;52.234;21.288;2024-03-08T11:04:37;101121.06;;;7.09;47.32
83718;BME280;73701;52.234;21.288;2024-03-08T11:07:03;101167.25;;;7.39;46.20
83718;BME280;73701;52.234;21.288;2024-03-08T11:09:32;101160.34;;;7.42;45.70
83718;BME280;73701;52.234;21.288;2024-03-08T11:12:23;101172.00;;;7.74;46.48
83718;BME280;73701;52.234;21.288;2024-03-08T11:14:58;101158.94;;;7.82;45.57
83718;BME280;73701;52.234;21.288;2024-03-08T11:19:56;101037.03;;;7.48;42.66
83718;BME280;73701;52.234;21.288;2024-03-08T11:22:23;101163.53;;;8.24;43.12
83718;BME280;73701;52.234;21.288;2024-03-08T11:24:52;101117.44;;;7.91;46.39
83718;BME280;73701;52.234;21.288;2024-03-08T11:27:17;101147.28;;;8.16;44.81
83718;BME280;73701;52.234;21.288;2024-03-08T11:29:42;101142.19;;;8.08;45.64
83718;BME280;73701;52.234;21.288;2024-03-08T11:32:10;101164.34;;;8.27;42.23
83718;BME280;73701;52.234;21.288;2024-03-08T11:34:36;101043.03;;;7.50;44.56
83718;BME280;73701;52.234;21.288;2024-03-08T11:37:04;101118.69;;;8.22;41.58
83718;BME280;73701;52.234;21.288;2024-03-08T11:39:31;101022.22;;;7.59;43.88
83718;BME280;73701;52.234;21.288;2024-03-08T11:41:56;101075.84;;;8.02;42.58
83718;BME280;73701;52.234;21.288;2024-03-08T11:44:26;100882.50;;;7.11;41.17
83718;BME280;73701;52.234;21.288;2024-03-08T11:46:52;101135.97;;;8.74;42.62
83718;BME280;73701;52.234;21.288;2024-03-08T11:49:17;101043.66;;;8.20;42.54
83718;BME280;73701;52.234;21.288;2024-03-08T11:51:43;101124.44;;;8.92;40.88
83718;BME280;73701;52.234;21.288;2024-03-08T11:54:12;101131.28;;;8.96;43.25
83718;BME280;73701;52.234;21.288;2024-03-08T11:56:40;101106.38;;;8.88;42.52
83718;BME280;73701;52.234;21.288;2024-03-08T11:59:11;101121.44;;;9.14;41.62
83718;BME280;73701;52.234;21.288;2024-03-08T12:01:37;101090.47;;;9.06;40.39
83718;BME280;73701;52.234;21.288;2024-03-08T12:04:03;101100.56;;;9.20;41.67
83718;BME280;73701;52.234;21.288;2024-03-08T12:06:40;101090.38;;;9.11;42.06
83718;BME280;73701;52.234;21.288;2024-03-08T12:09:10;101110.47;;;9.42;41.32
83718;BME280;73701;52.234;21.288;2024-03-08T12:11:36;101093.13;;;9.45;40.59
83718;BME280;73701;52.234;21.288;2024-03-08T12:14:03;101095.25;;;9.67;38.16
83718;BME280;73701;52.234;21.288;2024-03-08T12:16:29;101091.81;;;9.66;37.23
83718;BME280;73701;52.234;21.288;2024-03-08T12:18:54;100976.19;;;9.17;39.04
83718;BME280;73701;52.234;21.288;2024-03-08T12:21:20;101096.97;;;10.06;38.21
83718;BME280;73701;52.234;21.288;2024-03-08T12:24:02;101096.84;;;10.12;39.40
83718;BME280;73701;52.234;21.288;2024-03-08T12:26:28;101080.16;;;10.21;39.75
83718;BME280;73701;52.234;21.288;2024-03-08T12:28:53;101027.03;;;9.99;36.76
83718;BME280;73701;52.234;21.288;2024-03-08T12:31:18;101095.84;;;10.16;37.59
83718;BME280;73701;52.234;21.288;2024-03-08T12:33:54;101115.34;;;10.32;37.78
83718;BME280;73701;52.234;21.288;2024-03-08T12:36:24;100973.91;;;9.78;37.67
83718;BME280;73701;52.234;21.288;2024-03-08T12:38:50;101037.78;;;10.53;37.29
83718;BME280;73701;52.234;21.288;2024-03-08T12:41:20;101055.38;;;10.76;36.72
83718;BME280;73701;52.234;21.288;2024-03-08T12:43:46;101080.44;;;11.09;36.10